createdAt,value
2023-04-18T00:00:24.725Z,4.13
2023-04-18T00:05:21.823Z,3.72
2023-04-18T00:07:48.685Z,4.00
2023-04-18T00:10:16.806Z,4.63
2023-04-18T00:12:43.563Z,3.92
2023-04-18T00:15:11.647Z,4.88
2023-04-18T00:17:38.558Z,4.60
2023-04-18T00:20:09.167Z,4.40
2023-04-18T00:22:36.384Z,4.47
2023-04-18T00:25:03.095Z,4.90
2023-04-18T00:27:29.736Z,5.10
2023-04-18T00:29:56.380Z,4.82
2023-04-18T00:32:23.056Z,5.20
2023-04-18T00:34:49.948Z,4.50
2023-04-18T00:37:19.265Z,4.10
2023-04-18T00:39:45.914Z,4.78
2023-04-18T00:42:12.591Z,4.70
2023-04-18T00:44:39.241Z,5.13
2023-04-18T00:47:06.354Z,5.03
2023-04-18T00:49:33.307Z,4.00
2023-04-18T00:52:00.241Z,4.20
2023-04-18T00:54:27.355Z,4.43
2023-04-18T00:56:54.256Z,4.55
2023-04-18T00:59:22.140Z,4.80
2023-04-18T01:01:48.878Z,5.00
2023-04-18T01:04:15.968Z,4.50
2023-04-18T01:09:11.102Z,4.13
2023-04-18T01:11:37.788Z,4.72
2023-04-18T01:14:06.855Z,4.28
2023-04-18T01:16:37.081Z,4.97
2023-04-18T01:19:04.933Z,5.15
2023-04-18T01:21:33.986Z,5.00
2023-04-18T01:24:09.124Z,4.95
2023-04-18T01:26:36.296Z,4.93
2023-04-18T01:29:05.675Z,4.75
2023-04-18T01:34:03.888Z,4.40
2023-04-18T01:36:31.919Z,5.00
2023-04-18T01:38:59.722Z,4.93
2023-04-18T01:41:27.250Z,4.40
2023-04-18T01:43:53.915Z,4.85
2023-04-18T01:46:20.613Z,5.20
2023-04-18T01:48:47.280Z,4.45
2023-04-18T01:51:14.072Z,4.32
2023-04-18T01:53:41.801Z,4.50
2023-04-18T01:56:10.131Z,4.38
2023-04-18T01:58:37.272Z,4.72
2023-04-18T02:01:04.362Z,4.65
2023-04-18T02:03:31.215Z,4.90
2023-04-18T02:05:58.087Z,4.65
2023-04-18T02:08:24.836Z,5.05
2023-04-18T02:10:51.499Z,4.85
2023-04-18T02:13:18.169Z,4.60
2023-04-18T02:15:45.939Z,4.30
2023-04-18T02:18:15.715Z,4.75
2023-04-18T02:20:42.346Z,5.10
2023-04-18T02:23:09.050Z,4.88
2023-04-18T02:25:35.688Z,5.40
2023-04-18T02:28:02.398Z,5.22
2023-04-18T02:30:31.294Z,5.13
2023-04-18T02:32:58.054Z,5.13
2023-04-18T02:35:25.998Z,4.82
2023-04-18T02:37:52.810Z,4.93
2023-04-18T02:40:19.869Z,4.90
2023-04-18T02:42:46.759Z,4.68
2023-04-18T02:45:15.303Z,4.88
2023-04-18T02:47:53.670Z,4.22
2023-04-18T02:50:21.844Z,4.57
2023-04-18T02:52:48.643Z,5.35
2023-04-18T02:55:17.459Z,5.40
2023-04-18T02:57:45.372Z,5.15
2023-04-18T03:00:30.784Z,5.40
2023-04-18T03:03:16.939Z,5.75
2023-04-18T03:05:54.938Z,6.38
2023-04-18T03:08:21.930Z,6.57
2023-04-18T03:10:48.918Z,6.70
2023-04-18T03:13:17.811Z,4.95
2023-04-18T03:15:44.817Z,6.30
2023-04-18T03:18:12.744Z,5.15
2023-04-18T03:20:41.116Z,5.53
2023-04-18T03:23:08.360Z,5.95
2023-04-18T03:25:35.721Z,5.68
2023-04-18T03:28:03.399Z,5.80
2023-04-18T03:30:30.981Z,5.47
2023-04-18T03:32:59.521Z,6.38
2023-04-18T03:35:26.287Z,5.60
2023-04-18T03:37:52.972Z,6.60
2023-04-18T03:40:24.603Z,6.35
2023-04-18T03:42:54.181Z,7.18
2023-04-18T03:45:20.816Z,8.35
2023-04-18T03:47:47.866Z,8.25
2023-04-18T03:50:15.710Z,7.38
2023-04-18T03:52:44.528Z,7.45
2023-04-18T03:57:39.822Z,6.30
2023-04-18T04:00:11.070Z,6.25
2023-04-18T04:02:50.010Z,6.15
2023-04-18T04:05:20.416Z,5.78
2023-04-18T04:10:14.505Z,5.20
2023-04-18T04:12:41.269Z,6.03
2023-04-18T04:15:08.623Z,6.03
2023-04-18T04:17:38.892Z,5.95
2023-04-18T04:20:07.286Z,5.63
2023-04-18T04:22:35.032Z,5.53
2023-04-18T04:25:02.630Z,6.07
2023-04-18T04:27:36.746Z,5.50
2023-04-18T04:30:07.158Z,5.68
2023-04-18T04:32:35.471Z,5.63
2023-04-18T04:35:02.234Z,6.25
2023-04-18T04:37:29.446Z,6.90
2023-04-18T04:40:23.060Z,5.95
2023-04-18T04:42:54.612Z,6.57
2023-04-18T04:45:31.224Z,5.95
2023-04-18T04:47:58.024Z,6.35
2023-04-18T04:50:25.565Z,6.35
2023-04-18T04:52:52.252Z,7.10
2023-04-18T04:55:19.121Z,7.20
2023-04-18T04:57:47.623Z,7.72
2023-04-18T05:00:30.224Z,6.93
2023-04-18T05:02:59.925Z,7.93
2023-04-18T05:05:27.771Z,7.82
2023-04-18T05:07:54.778Z,8.35
2023-04-18T05:10:21.713Z,9.18
2023-04-18T05:12:48.378Z,8.52
2023-04-18T05:15:18.704Z,9.38
2023-04-18T05:17:45.431Z,9.15
2023-04-18T05:20:12.515Z,8.45
2023-04-18T05:22:39.136Z,8.90
2023-04-18T05:25:06.301Z,9.23
2023-04-18T05:27:32.938Z,9.30
2023-04-18T05:29:59.565Z,9.02
2023-04-18T05:32:26.285Z,10.13
2023-04-18T05:34:52.925Z,8.75
2023-04-18T05:37:19.652Z,8.90
2023-04-18T05:39:46.338Z,9.50
2023-04-18T05:42:13.069Z,8.40
2023-04-18T05:44:39.741Z,9.02
2023-04-18T05:47:06.746Z,9.35
2023-04-18T05:49:33.546Z,7.95
2023-04-18T05:52:00.231Z,7.95
2023-04-18T05:54:27.442Z,8.00
2023-04-18T05:56:55.236Z,6.45
2023-04-18T05:59:21.932Z,6.47
2023-04-18T06:01:49.491Z,6.53
2023-04-18T06:04:16.873Z,6.65
2023-04-18T06:06:44.088Z,6.45
2023-04-18T06:09:11.059Z,6.80
2023-04-18T06:11:37.735Z,7.28
2023-04-18T06:14:04.634Z,6.80
2023-04-18T06:16:31.330Z,5.78
2023-04-18T06:19:00.959Z,5.72
2023-04-18T06:21:28.075Z,6.68
2023-04-18T06:23:54.794Z,5.85
2023-04-18T06:26:21.544Z,5.70
2023-04-18T06:28:48.351Z,5.97
2023-04-18T06:31:15.039Z,7.30
2023-04-18T06:33:41.921Z,8.95
2023-04-18T06:36:09.221Z,11.52
2023-04-18T06:41:02.500Z,12.88
2023-04-18T06:43:29.200Z,14.93
2023-04-18T06:45:56.698Z,13.52
2023-04-18T06:48:23.646Z,10.85
2023-04-18T06:50:50.538Z,12.18
2023-04-18T06:53:17.246Z,15.13
2023-04-18T06:55:44.086Z,16.92
2023-04-18T06:58:13.558Z,18.27
2023-04-18T07:00:40.298Z,18.00
2023-04-18T07:03:11.365Z,16.15
2023-04-18T07:05:39.166Z,16.38
2023-04-18T07:08:06.041Z,14.85
2023-04-18T07:10:32.762Z,15.50
2023-04-18T07:12:59.589Z,15.25
2023-04-18T07:15:26.332Z,14.70
2023-04-18T07:17:53.301Z,15.30
2023-04-18T07:20:20.110Z,16.45
2023-04-18T07:22:47.954Z,14.98
2023-04-18T07:25:14.799Z,16.48
2023-04-18T07:27:41.486Z,13.18
2023-04-18T07:30:08.794Z,14.45
2023-04-18T07:32:35.474Z,14.05
2023-04-18T07:35:03.340Z,14.75
2023-04-18T07:37:30.234Z,15.00
2023-04-18T07:39:56.910Z,15.27
2023-04-18T07:42:23.580Z,17.92
2023-04-18T07:44:50.362Z,17.98
2023-04-18T07:47:22.193Z,17.27
2023-04-18T07:49:49.207Z,16.95
2023-04-18T07:52:15.874Z,16.90
2023-04-18T07:54:42.620Z,15.95
2023-04-18T07:57:09.387Z,16.92
2023-04-18T07:59:36.377Z,16.30
2023-04-18T08:02:03.191Z,16.95
2023-04-18T08:04:30.614Z,15.95
2023-04-18T08:06:57.476Z,15.95
2023-04-18T08:09:24.612Z,15.98
2023-04-18T08:11:51.379Z,14.32
2023-04-18T08:14:18.017Z,15.70
2023-04-18T08:16:44.848Z,16.50
2023-04-18T08:19:11.688Z,15.77
2023-04-18T08:21:39.265Z,16.35
2023-04-18T08:24:06.240Z,15.38
2023-04-18T08:26:32.910Z,15.70
2023-04-18T08:28:59.587Z,15.55
2023-04-18T08:31:26.492Z,15.13
2023-04-18T08:33:53.340Z,15.05
2023-04-18T08:36:21.164Z,14.77
2023-04-18T08:38:47.813Z,14.98
2023-04-18T08:41:17.371Z,13.95
2023-04-18T08:43:48.852Z,14.23
2023-04-18T08:46:15.623Z,13.90
2023-04-18T08:48:42.381Z,14.55
2023-04-18T08:51:09.216Z,13.15
2023-04-18T08:53:36.048Z,12.93
2023-04-18T08:56:02.840Z,13.75
2023-04-18T08:58:33.705Z,13.98
2023-04-18T09:01:00.835Z,13.27
2023-04-18T09:03:42.451Z,12.43
2023-04-18T09:06:12.449Z,11.23
2023-04-18T09:08:43.692Z,12.52
2023-04-18T09:11:25.932Z,12.27
2023-04-18T09:18:10.356Z,9.70
2023-04-18T09:20:41.016Z,9.45
2023-04-18T09:23:14.521Z,9.23
2023-04-18T09:25:42.732Z,8.95
2023-04-18T09:28:27.951Z,10.43
2023-04-18T09:31:16.823Z,9.82
2023-04-18T09:33:56.760Z,9.88
2023-04-18T09:36:27.035Z,9.48
2023-04-18T09:38:56.687Z,9.98
2023-04-18T09:41:23.914Z,10.55
2023-04-18T09:43:52.038Z,10.95
2023-04-18T09:46:18.814Z,9.10
2023-04-18T09:48:45.493Z,11.00
2023-04-18T09:51:16.228Z,10.05
2023-04-18T09:53:44.901Z,10.57
2023-04-18T09:56:25.923Z,10.32
2023-04-18T09:58:59.100Z,10.77
2023-04-18T10:01:29.714Z,10.38
2023-04-18T10:04:00.985Z,10.10
2023-04-18T10:06:28.790Z,9.25
2023-04-18T10:08:56.017Z,9.05
2023-04-18T10:13:55.693Z,9.30
2023-04-18T10:16:22.726Z,9.95
2023-04-18T10:18:51.027Z,8.98
2023-04-18T10:21:17.697Z,8.23
2023-04-18T10:23:45.856Z,8.95
2023-04-18T10:26:12.558Z,8.68
2023-04-18T10:28:59.003Z,8.93
2023-04-18T10:31:27.483Z,8.68
2023-04-18T10:34:04.662Z,8.38
2023-04-18T10:39:20.153Z,8.48
2023-04-18T10:41:51.407Z,8.50
2023-04-18T10:44:19.944Z,8.52
2023-04-18T10:46:52.761Z,9.20
2023-04-18T10:49:22.893Z,7.90
2023-04-18T10:51:55.169Z,8.25
2023-04-18T10:54:54.212Z,9.00
2023-04-18T10:59:52.241Z,8.43
2023-04-18T11:02:30.185Z,9.10
2023-04-18T11:05:02.822Z,8.70
2023-04-18T11:07:49.001Z,8.35
2023-04-18T11:10:21.187Z,8.38
2023-04-18T11:12:48.352Z,8.32
2023-04-18T11:15:23.281Z,9.50
2023-04-18T11:18:01.625Z,8.75
2023-04-18T11:20:29.545Z,7.85
2023-04-18T11:22:57.256Z,6.90
2023-04-18T11:25:27.190Z,7.72
2023-04-18T11:27:56.809Z,7.85
2023-04-18T11:30:23.568Z,7.25
2023-04-18T11:32:51.486Z,7.43
2023-04-18T11:35:18.482Z,6.55
2023-04-18T11:37:45.888Z,7.88
2023-04-18T11:40:14.024Z,6.30
2023-04-18T11:42:42.134Z,6.03
2023-04-18T11:45:17.901Z,5.72
2023-04-18T11:47:46.741Z,6.82
2023-04-18T11:50:13.886Z,6.80
2023-04-18T11:52:42.440Z,6.53
2023-04-18T11:55:18.372Z,5.20
2023-04-18T11:58:01.534Z,4.80
2023-04-18T12:00:32.912Z,5.75
2023-04-18T12:03:01.659Z,6.50
2023-04-18T12:05:34.343Z,6.82
2023-04-18T12:08:18.359Z,7.00
2023-04-18T12:10:50.375Z,6.30
2023-04-18T12:13:17.993Z,6.57
2023-04-18T12:15:46.493Z,6.13
2023-04-18T12:18:15.290Z,6.97
2023-04-18T12:20:50.082Z,5.95
2023-04-18T12:23:29.922Z,5.90
2023-04-18T12:26:04.177Z,5.80
2023-04-18T12:28:31.724Z,5.13
2023-04-18T12:30:59.033Z,5.55
2023-04-18T12:33:26.287Z,6.43
2023-04-18T12:35:53.507Z,5.63
2023-04-18T12:38:22.301Z,4.93
2023-04-18T12:40:49.800Z,5.25
2023-04-18T12:43:17.040Z,5.32
2023-04-18T12:48:10.593Z,4.85
2023-04-18T12:50:37.493Z,5.50
2023-04-18T12:53:05.791Z,4.88
2023-04-18T12:55:32.920Z,4.70
2023-04-18T12:57:59.809Z,3.95
2023-04-18T13:00:31.460Z,3.78
2023-04-18T13:02:58.915Z,4.82
2023-04-18T13:05:29.924Z,5.15
2023-04-18T13:08:15.397Z,4.75
2023-04-18T13:10:44.634Z,4.75
2023-04-18T13:15:38.273Z,5.05
2023-04-18T13:18:06.652Z,5.72
2023-04-18T13:20:34.107Z,4.18
2023-04-18T13:25:28.715Z,4.95
2023-04-18T13:27:56.262Z,5.07
2023-04-18T13:30:22.959Z,4.70
2023-04-18T13:32:49.659Z,5.35
2023-04-18T13:35:16.310Z,4.90
2023-04-18T13:37:43.210Z,5.60
2023-04-18T13:40:10.265Z,4.90
2023-04-18T13:42:38.338Z,5.20
2023-04-18T13:45:05.505Z,6.00
2023-04-18T13:47:32.443Z,5.35
2023-04-18T13:49:59.294Z,4.53
2023-04-18T13:52:26.224Z,4.68
2023-04-18T13:54:53.169Z,4.65
2023-04-18T13:57:20.012Z,3.85
2023-04-18T13:59:46.853Z,4.47
2023-04-18T14:02:13.936Z,4.75
2023-04-18T14:04:40.935Z,4.35
2023-04-18T14:07:08.093Z,4.18
2023-04-18T14:09:34.975Z,3.45
2023-04-18T14:12:02.061Z,4.13
2023-04-18T14:14:29.060Z,4.78
2023-04-18T14:16:55.803Z,4.38
2023-04-18T14:19:22.733Z,3.90
2023-04-18T14:21:49.444Z,3.63
2023-04-18T14:24:16.128Z,3.88
2023-04-18T14:26:42.790Z,4.50
2023-04-18T14:29:09.486Z,4.00
2023-04-18T14:31:36.320Z,3.75
2023-04-18T14:34:03.103Z,3.63
2023-04-18T14:36:29.755Z,4.18
2023-04-18T14:38:56.489Z,3.45
2023-04-18T14:41:23.815Z,3.90
2023-04-18T14:46:17.263Z,3.38
2023-04-18T14:48:47.443Z,3.90
2023-04-18T14:51:16.254Z,3.78
2023-04-18T14:53:43.498Z,2.95
2023-04-18T14:58:36.811Z,4.18
2023-04-18T15:01:04.356Z,3.60
2023-04-18T15:03:31.459Z,3.45
2023-04-18T15:05:58.244Z,3.30
2023-04-18T15:08:25.159Z,2.90
2023-04-18T15:10:51.816Z,3.22
2023-04-18T15:13:19.556Z,4.13
2023-04-18T15:15:53.209Z,3.17
2023-04-18T15:18:20.360Z,3.22
2023-04-18T15:20:47.445Z,3.55
2023-04-18T15:23:15.124Z,2.97
2023-04-18T15:25:43.625Z,3.13
2023-04-18T15:28:10.336Z,2.72
2023-04-18T15:30:37.014Z,3.75
2023-04-18T15:33:03.826Z,3.50
2023-04-18T15:35:30.617Z,4.07
2023-04-18T15:37:57.557Z,3.78
2023-04-18T15:40:24.578Z,3.70
2023-04-18T15:42:53.529Z,4.13
2023-04-18T15:45:21.325Z,3.63
2023-04-18T15:47:48.384Z,4.32
2023-04-18T15:50:16.258Z,3.70
2023-04-18T15:52:43.743Z,3.90
2023-04-18T15:57:37.402Z,4.70
2023-04-18T16:00:10.206Z,4.18
2023-04-18T16:02:37.169Z,4.75
2023-04-18T16:05:04.779Z,4.63
2023-04-18T16:07:31.611Z,4.68
2023-04-18T16:09:58.246Z,4.57
2023-04-18T16:12:24.895Z,3.92
2023-04-18T16:14:51.538Z,5.40
2023-04-18T16:17:18.169Z,5.03
2023-04-18T16:19:44.837Z,5.20
2023-04-18T16:22:12.298Z,4.65
2023-04-18T16:24:40.884Z,5.20
2023-04-18T16:27:08.606Z,4.88
2023-04-18T16:29:35.366Z,5.30
2023-04-18T16:32:02.147Z,5.15
2023-04-18T16:34:28.815Z,5.38
2023-04-18T16:36:55.758Z,5.50
2023-04-18T16:39:22.554Z,5.85
2023-04-18T16:41:49.227Z,5.32
2023-04-18T16:44:16.143Z,4.80
2023-04-18T16:46:43.099Z,5.53
2023-04-18T16:49:10.214Z,5.10
2023-04-18T16:51:38.155Z,4.88
2023-04-18T16:54:06.016Z,4.40
2023-04-18T16:56:33.778Z,5.13
2023-04-18T16:59:00.641Z,4.75
2023-04-18T17:01:27.427Z,5.05
2023-04-18T17:03:54.306Z,4.63
2023-04-18T17:06:22.697Z,5.40
2023-04-18T17:08:50.092Z,4.47
2023-04-18T17:13:43.878Z,4.68
2023-04-18T17:16:11.066Z,5.20
2023-04-18T17:18:37.895Z,5.25
2023-04-18T17:21:04.595Z,4.80
2023-04-18T17:23:32.957Z,5.43
2023-04-18T17:25:59.905Z,4.85
2023-04-18T17:28:26.973Z,4.97
2023-04-18T17:30:53.608Z,4.82
2023-04-18T17:33:20.968Z,5.57
2023-04-18T17:35:48.167Z,5.60
2023-04-18T17:38:15.013Z,5.63
2023-04-18T17:40:41.929Z,5.43
2023-04-18T17:43:08.708Z,5.63
2023-04-18T17:45:35.448Z,5.13
2023-04-18T17:48:03.081Z,4.78
2023-04-18T17:50:30.074Z,5.47
2023-04-18T17:52:57.431Z,6.15
2023-04-18T17:57:52.681Z,4.90
2023-04-18T18:00:19.507Z,4.78
2023-04-18T18:02:46.710Z,5.68
2023-04-18T18:07:43.061Z,4.80
2023-04-18T18:10:10.724Z,6.07
2023-04-18T18:12:38.124Z,5.93
2023-04-18T18:17:31.794Z,5.82
2023-04-18T18:19:58.447Z,6.00
2023-04-18T18:22:26.123Z,6.25
2023-04-18T18:24:52.934Z,6.07
2023-04-18T18:27:20.264Z,6.13
2023-04-18T18:32:14.742Z,7.43
2023-04-18T18:34:41.385Z,6.50
2023-04-18T18:37:08.272Z,7.30
2023-04-18T18:39:36.538Z,6.70
2023-04-18T18:42:03.288Z,6.60
2023-04-18T18:44:30.476Z,6.93
2023-04-18T18:46:58.691Z,6.13
2023-04-18T18:49:26.503Z,7.20
2023-04-18T18:51:53.404Z,6.00
2023-04-18T18:54:20.248Z,6.43
2023-04-18T18:56:47.009Z,5.38
2023-04-18T18:59:13.972Z,5.72
2023-04-18T19:01:41.083Z,5.07
2023-04-18T19:04:07.989Z,5.22
2023-04-18T19:06:35.198Z,4.82
2023-04-18T19:09:01.870Z,5.60
2023-04-18T19:11:29.182Z,5.28
2023-04-18T19:16:22.829Z,4.90
2023-04-18T19:18:50.492Z,5.38
2023-04-18T19:21:17.402Z,6.22
2023-04-18T19:23:44.091Z,6.32
2023-04-18T19:26:10.740Z,6.03
2023-04-18T19:28:37.535Z,5.50
2023-04-18T19:31:04.436Z,5.18
2023-04-18T19:33:31.255Z,5.28
2023-04-18T19:35:58.655Z,5.15
2023-04-18T19:38:25.628Z,4.93
2023-04-18T19:40:52.318Z,6.05
2023-04-18T19:43:19.086Z,5.53
2023-04-18T19:45:45.881Z,5.30
2023-04-18T19:48:12.727Z,5.53
2023-04-18T19:50:40.465Z,5.38
2023-04-18T19:53:07.152Z,6.00
2023-04-18T19:55:34.023Z,5.95
2023-04-18T19:58:00.814Z,6.28
2023-04-18T20:00:28.363Z,6.25
2023-04-18T20:02:55.489Z,6.53
2023-04-18T20:05:22.673Z,6.82
2023-04-18T20:07:50.150Z,6.55
2023-04-18T20:10:21.668Z,6.38
2023-04-18T20:12:50.092Z,6.35
2023-04-18T20:15:17.132Z,6.07
2023-04-18T20:17:43.869Z,6.00
2023-04-18T20:20:11.358Z,6.28
2023-04-18T20:22:40.263Z,6.28
2023-04-18T20:25:07.202Z,6.68
2023-04-18T20:27:33.930Z,6.47
2023-04-18T20:30:00.705Z,5.88
2023-04-18T20:32:27.984Z,6.05
2023-04-18T20:34:54.786Z,6.38
2023-04-18T20:37:21.498Z,5.75
2023-04-18T20:39:48.142Z,5.60
2023-04-18T20:42:14.829Z,6.18
2023-04-18T20:44:46.720Z,5.88
2023-04-18T20:47:15.509Z,6.40
2023-04-18T20:49:42.679Z,6.50
2023-04-18T20:52:09.625Z,5.88
2023-04-18T20:54:36.267Z,5.53
2023-04-18T20:57:03.102Z,6.65
2023-04-18T20:59:29.876Z,6.50
2023-04-18T21:01:56.625Z,6.10
2023-04-18T21:04:23.779Z,6.30
2023-04-18T21:06:51.043Z,5.50
2023-04-18T21:09:17.742Z,5.30
2023-04-18T21:11:44.420Z,5.80
2023-04-18T21:14:11.324Z,5.43
2023-04-18T21:16:39.670Z,5.75
2023-04-18T21:19:06.864Z,5.20
2023-04-18T21:21:34.323Z,5.90
2023-04-18T21:24:01.876Z,5.18
2023-04-18T21:26:28.701Z,5.68
2023-04-18T21:29:04.655Z,6.03
2023-04-18T21:31:32.941Z,6.13
2023-04-18T21:34:01.583Z,5.45
2023-04-18T21:36:31.008Z,5.50
2023-04-18T21:39:00.707Z,5.43
2023-04-18T21:41:27.810Z,5.38
2023-04-18T21:43:54.523Z,5.05
2023-04-18T21:46:21.458Z,5.57
2023-04-18T21:48:48.448Z,5.72
2023-04-18T21:51:16.464Z,6.13
2023-04-18T21:53:43.208Z,5.43
2023-04-18T21:56:10.763Z,5.47
2023-04-18T21:58:37.448Z,5.03
2023-04-18T22:01:04.289Z,5.75
2023-04-18T22:03:31.634Z,5.32
2023-04-18T22:05:58.808Z,5.03
2023-04-18T22:08:26.185Z,5.07
2023-04-18T22:16:04.238Z,5.20
2023-04-18T22:18:33.825Z,5.20
2023-04-18T22:21:02.273Z,4.95
2023-04-18T22:23:30.253Z,5.40
2023-04-18T22:25:56.990Z,4.55
2023-04-18T22:28:23.703Z,5.47
2023-04-18T22:30:51.519Z,5.63
2023-04-18T22:33:18.316Z,5.60
2023-04-18T22:35:46.346Z,5.40
2023-04-18T22:38:13.025Z,6.13
2023-04-18T22:40:39.739Z,5.43
2023-04-18T22:43:06.384Z,5.82
2023-04-18T22:45:34.556Z,5.30
2023-04-18T22:48:01.360Z,5.03
2023-04-18T22:50:28.079Z,5.75
2023-04-18T22:52:54.729Z,6.28
2023-04-18T22:55:21.509Z,5.15
2023-04-18T22:57:48.179Z,4.97
2023-04-18T23:00:15.336Z,4.63
2023-04-18T23:02:42.083Z,5.00
2023-04-18T23:05:10.693Z,5.50
2023-04-18T23:07:37.432Z,5.68
2023-04-18T23:10:06.315Z,6.13
2023-04-18T23:12:33.020Z,6.07
2023-04-18T23:14:59.693Z,5.93
2023-04-18T23:17:26.352Z,5.82
2023-04-18T23:19:53.031Z,5.30
2023-04-18T23:22:20.364Z,6.10
2023-04-18T23:24:47.095Z,5.40
2023-04-18T23:27:13.719Z,6.40
2023-04-18T23:29:40.394Z,6.25
2023-04-18T23:32:07.240Z,6.10
2023-04-18T23:34:34.190Z,6.78
2023-04-18T23:37:00.855Z,5.68
2023-04-18T23:39:27.588Z,6.15
2023-04-18T23:41:54.257Z,5.60
2023-04-18T23:44:21.326Z,6.32
2023-04-18T23:46:48.465Z,5.72
2023-04-18T23:49:16.114Z,6.35
2023-04-18T23:51:42.825Z,7.03
2023-04-18T23:54:09.690Z,7.07
2023-04-18T23:56:36.358Z,6.20
2023-04-18T23:59:03.010Z,5.55
